Time;durP1;ratioP1;P1;durP2;ratioP2;P2;SDS_P1;SDS_P2;PMS_P1;PMS_P2;Temp;Humidity;BMP_temperature;BMP_pressure;BME280_temperature;BME280_humidity;BME280_pressure;Samples;Min_cycle;Max_cycle;Signal;HPM_P1;HPM_P2
2024/02/15 00:02:21;;;;;;;25.75;15.95;;;12.80;99.90;;;;;;4989169;28;20155;-77
2024/02/15 00:04:47;;;;;;;25.75;16.83;;;12.80;99.90;;;;;;4971059;28;20030;-77
2024/02/15 00:07:13;;;;;;;28.73;17.10;;;12.80;99.90;;;;;;4971820;28;20080;-77
2024/02/15 00:09:38;;;;;;;27.65;17.15;;;12.80;99.90;;;;;;4971381;28;20073;-77
2024/02/15 00:12:04;;;;;;;28.27;18.25;;;12.80;99.90;;;;;;4989340;28;20026;-77
2024/02/15 00:14:31;;;;;;;29.95;17.83;;;12.80;99.90;;;;;;4989111;28;20074;-77
2024/02/15 00:16:57;;;;;;;27.90;18.65;;;12.80;99.90;;;;;;4988604;28;20053;-77
2024/02/15 00:19:23;;;;;;;29.45;17.92;;;12.80;99.90;;;;;;4989241;28;20018;-77
2024/02/15 00:21:49;;;;;;;32.90;20.45;;;12.80;99.90;;;;;;4970697;28;20042;-77
2024/02/15 00:24:15;;;;;;;28.48;20.05;;;12.80;99.90;;;;;;4988955;28;20041;-78
2024/02/15 00:26:42;;;;;;;27.55;18.65;;;12.80;99.90;;;;;;4988502;28;20851;-78
2024/02/15 00:29:08;;;;;;;25.73;18.08;;;12.80;99.90;;;;;;4988604;28;20026;-78
2024/02/15 00:31:35;;;;;;;32.47;21.23;;;12.80;99.90;;;;;;4988072;28;20110;-77
2024/02/15 00:34:02;;;;;;;30.52;19.95;;;12.80;99.90;;;;;;4970806;28;20038;-77
2024/02/15 00:36:29;;;;;;;31.80;20.35;;;12.80;99.90;;;;;;4988077;28;20444;-77
2024/02/15 00:38:55;;;;;;;32.38;21.27;;;12.80;99.90;;;;;;4988275;28;20026;-78
2024/02/15 00:41:21;;;;;;;32.88;21.92;;;12.80;99.90;;;;;;4988157;28;20034;-77
2024/02/15 00:43:47;;;;;;;35.03;22.25;;;12.80;99.90;;;;;;4970152;28;20595;-77
2024/02/15 00:46:12;;;;;;;36.63;23.40;;;12.80;99.90;;;;;;4988470;28;20062;-78
2024/02/15 00:48:40;;;;;;;31.02;22.25;;;12.80;99.90;;;;;;4971035;28;20468;-77
2024/02/15 00:51:05;;;;;;;33.38;22.25;;;12.80;99.90;;;;;;4988023;28;20030;-77
2024/02/15 00:53:31;;;;;;;28.08;20.80;;;12.80;99.90;;;;;;4988413;28;20023;-77
2024/02/15 00:55:56;;;;;;;35.00;24.30;;;12.80;99.90;;;;;;4987784;28;20113;-77
2024/02/15 00:58:22;;;;;;;31.83;20.92;;;12.80;99.90;;;;;;4988211;28;20041;-78
2024/02/15 01:00:48;;;;;;;33.33;22.40;;;12.80;99.90;;;;;;4987601;28;20034;-78
2024/02/15 01:03:15;;;;;;;26.95;20.45;;;12.80;99.90;;;;;;4988208;28;20038;-77
2024/02/15 01:05:40;;;;;;;31.38;20.00;;;12.80;99.90;;;;;;4969736;28;20587;-77
2024/02/15 01:08:06;;;;;;;28.67;17.30;;;12.80;99.90;;;;;;4987881;28;20101;-77
2024/02/15 01:10:33;;;;;;;31.55;19.80;;;12.90;99.90;;;;;;4969851;28;20061;-78
2024/02/15 01:12:59;;;;;;;23.35;17.08;;;12.80;99.90;;;;;;4987886;28;20356;-77
2024/02/15 01:15:24;;;;;;;29.55;18.77;;;12.90;99.90;;;;;;4969670;28;20026;-77
2024/02/15 01:17:50;;;;;;;25.50;17.35;;;12.90;99.90;;;;;;4987959;28;20118;-77
2024/02/15 01:20:16;;;;;;;26.45;17.50;;;12.90;99.90;;;;;;4987251;28;20093;-77
2024/02/15 01:22:41;;;;;;;24.88;15.85;;;12.90;99.90;;;;;;4986141;28;20042;-77
2024/02/15 01:25:08;;;;;;;24.58;16.52;;;12.90;99.90;;;;;;4969386;28;20022;-76
2024/02/15 01:27:34;;;;;;;26.17;16.00;;;12.80;99.90;;;;;;4986015;28;20030;-78
2024/02/15 01:29:59;;;;;;;26.63;16.67;;;12.90;99.90;;;;;;4985948;28;20037;-78
2024/02/15 01:32:25;;;;;;;20.30;14.27;;;12.80;99.90;;;;;;4986829;28;20057;-76
2024/02/15 01:34:53;;;;;;;27.30;16.75;;;12.90;99.90;;;;;;4968663;28;20032;-77
2024/02/15 01:37:20;;;;;;;22.67;15.07;;;12.90;99.90;;;;;;4986304;28;20086;-77
2024/02/15 01:39:46;;;;;;;24.83;15.52;;;12.80;99.90;;;;;;4986549;28;20077;-78
2024/02/15 01:42:14;;;;;;;28.63;15.75;;;12.80;99.90;;;;;;4986019;28;20028;-78
2024/02/15 01:44:44;;;;;;;26.10;15.13;;;12.80;99.90;;;;;;4986682;28;20109;-77
2024/02/15 01:47:10;;;;;;;27.48;15.30;;;12.90;99.90;;;;;;4986311;28;20018;-78
2024/02/15 01:49:36;;;;;;;27.88;14.10;;;12.90;99.90;;;;;;4986643;28;20121;-78
2024/02/15 01:52:05;;;;;;;27.50;15.05;;;12.90;99.90;;;;;;4968227;28;20061;-77
2024/02/15 01:54:32;;;;;;;22.63;14.27;;;12.90;99.90;;;;;;4986537;28;20030;-77
2024/02/15 01:56:57;;;;;;;25.05;14.63;;;12.90;99.90;;;;;;4985506;28;20530;-77
2024/02/15 01:59:24;;;;;;;29.85;14.30;;;12.90;99.90;;;;;;4986027;28;20022;-78
2024/02/15 02:01:50;;;;;;;26.90;14.38;;;12.90;99.90;;;;;;4985835;28;20510;-78
2024/02/15 02:04:16;;;;;;;22.08;13.75;;;12.90;99.90;;;;;;4986345;28;20026;-77
2024/02/15 02:06:42;;;;;;;21.00;13.45;;;12.90;99.90;;;;;;4985306;28;20373;-78
2024/02/15 02:09:14;;;;;;;21.73;13.23;;;12.90;99.90;;;;;;4986081;28;20026;-78
2024/02/15 02:11:41;;;;;;;21.85;13.60;;;12.90;99.90;;;;;;4985879;28;20583;-77
2024/02/15 02:14:07;;;;;;;24.80;13.32;;;12.90;99.90;;;;;;4986307;28;20389;-77
2024/02/15 02:16:32;;;;;;;25.20;13.65;;;12.90;99.90;;;;;;4986105;28;20038;-77
2024/02/15 02:18:59;;;;;;;22.67;13.23;;;12.90;99.90;;;;;;4986116;28;20014;-78
2024/02/15 02:21:26;;;;;;;24.75;13.13;;;12.90;99.90;;;;;;4943519;28;1221468;-78
2024/02/15 02:23:58;;;;;;;25.05;13.68;;;12.90;99.90;;;;;;4986996;28;20626;-77
2024/02/15 02:26:25;;;;;;;26.65;12.73;;;12.90;99.90;;;;;;4986434;28;20041;-77
2024/02/15 02:28:53;;;;;;;24.30;13.93;;;12.90;99.90;;;;;;4986600;28;20033;-77
2024/02/15 02:31:20;;;;;;;22.25;12.85;;;12.90;99.90;;;;;;4986280;28;20074;-78
2024/02/15 02:33:55;;;;;;;25.25;12.73;;;12.90;99.90;;;;;;4986215;28;20023;-78
2024/02/15 02:36:21;;;;;;;24.02;12.82;;;12.90;99.90;;;;;;4968734;28;20129;-77
2024/02/15 02:38:49;;;;;;;22.30;12.75;;;12.90;99.90;;;;;;4985917;28;20027;-78
2024/02/15 02:41:15;;;;;;;25.65;12.57;;;12.90;99.90;;;;;;4968389;28;20023;-78
2024/02/15 02:43:41;;;;;;;20.50;12.35;;;12.90;99.90;;;;;;4986258;28;20026;-78
2024/02/15 02:46:10;;;;;;;26.90;12.93;;;12.90;99.90;;;;;;4986155;28;20426;-78
2024/02/15 02:48:37;;;;;;;22.55;11.43;;;12.80;99.90;;;;;;4986447;28;20033;-78
2024/02/15 02:51:02;;;;;;;17.15;11.05;;;12.80;99.90;;;;;;4968256;28;20026;-77
2024/02/15 02:53:28;;;;;;;24.45;11.75;;;12.80;99.90;;;;;;4986594;28;20038;-77
2024/02/15 02:55:56;;;;;;;21.90;11.02;;;12.80;99.90;;;;;;4985844;28;20089;-77
2024/02/15 02:58:23;;;;;;;17.75;10.98;;;12.80;99.90;;;;;;4986589;28;20038;-77
2024/02/15 03:00:49;;;;;;;20.35;11.32;;;12.80;99.90;;;;;;4985924;28;20081;-77
2024/02/15 03:03:15;;;;;;;23.45;11.23;;;12.80;99.90;;;;;;4968596;28;20061;-77
2024/02/15 03:05:41;;;;;;;22.23;11.23;;;12.80;99.90;;;;;;4986041;28;20034;-77
2024/02/15 03:08:09;;;;;;;19.23;10.20;;;12.80;99.90;;;;;;4986178;28;20022;-77
2024/02/15 03:10:34;;;;;;;21.15;11.10;;;12.70;99.90;;;;;;4985906;28;20018;-77
2024/02/15 03:13:00;;;;;;;21.33;11.52;;;12.70;99.90;;;;;;4986486;28;20037;-77
2024/02/15 03:15:26;;;;;;;17.65;10.38;;;12.70;99.90;;;;;;4985389;28;20038;-77
2024/02/15 03:17:51;;;;;;;21.35;10.32;;;12.70;99.90;;;;;;4985873;28;20077;-77
2024/02/15 03:20:20;;;;;;;18.58;10.02;;;12.70;99.90;;;;;;4968384;28;20025;-77
2024/02/15 03:22:56;;;;;;;21.33;10.05;;;12.70;99.90;;;;;;4986104;28;20081;-77
2024/02/15 03:25:23;;;;;;;18.33;10.30;;;12.60;99.90;;;;;;4985990;28;20389;-77
2024/02/15 03:27:51;;;;;;;18.77;10.07;;;12.60;99.90;;;;;;4967893;28;20105;-77
2024/02/15 03:30:19;;;;;;;22.65;9.93;;;12.60;99.90;;;;;;4968117;28;20022;-77
2024/02/15 03:32:46;;;;;;;19.20;9.57;;;12.60;99.90;;;;;;4986103;28;20029;-77
2024/02/15 03:35:14;;;;;;;21.35;9.50;;;12.60;99.90;;;;;;4986426;28;20057;-77
2024/02/15 03:37:40;;;;;;;20.58;9.57;;;12.60;99.90;;;;;;4985811;28;20097;-78
2024/02/15 03:40:06;;;;;;;18.73;9.70;;;12.60;99.90;;;;;;4986170;28;20022;-76
2024/02/15 03:42:31;;;;;;;16.88;8.80;;;12.60;99.90;;;;;;4967786;28;20029;-77
2024/02/15 03:44:57;;;;;;;18.52;9.38;;;12.60;99.90;;;;;;4986079;28;20022;-77
2024/02/15 03:47:23;;;;;;;18.90;8.52;;;12.60;99.90;;;;;;4985870;28;20057;-77
2024/02/15 03:49:49;;;;;;;19.73;8.65;;;12.50;99.90;;;;;;4986140;28;20106;-77
2024/02/15 03:52:14;;;;;;;16.00;8.15;;;12.60;99.90;;;;;;4988494;28;20461;-77
2024/02/15 03:54:43;;;;;;;19.85;8.38;;;12.60;99.90;;;;;;4996429;28;20065;-77
2024/02/15 03:57:08;;;;;;;22.00;7.70;;;12.60;99.90;;;;;;4975420;28;20065;-77
2024/02/15 03:59:35;;;;;;;18.85;7.45;;;12.60;99.90;;;;;;4989316;28;20062;-77
2024/02/15 04:02:03;;;;;;;17.33;6.55;;;12.60;99.90;;;;;;4971203;28;20034;-77
2024/02/15 04:04:30;;;;;;;20.83;6.90;;;12.60;99.90;;;;;;4989744;28;20448;-77
2024/02/15 04:06:56;;;;;;;19.00;6.60;;;12.60;99.90;;;;;;4988634;28;20034;-77
2024/02/15 04:09:22;;;;;;;16.35;6.93;;;12.60;99.90;;;;;;4989458;28;20094;-77
2024/02/15 04:11:52;;;;;;;16.58;5.88;;;12.60;99.90;;;;;;4988462;28;20480;-77
2024/02/15 04:14:18;;;;;;;24.15;7.28;;;12.60;99.90;;;;;;4988977;28;20492;-78
2024/02/15 04:16:44;;;;;;;13.88;5.93;;;12.60;99.90;;;;;;4988478;28;20074;-77
2024/02/15 04:19:11;;;;;;;15.63;6.00;;;12.60;99.90;;;;;;4989004;28;20118;-77
2024/02/15 04:21:36;;;;;;;17.60;6.40;;;12.60;99.90;;;;;;4971036;28;20064;-78
2024/02/15 04:24:02;;;;;;;18.30;6.80;;;12.60;99.90;;;;;;4989258;28;20112;-77
2024/02/15 04:26:30;;;;;;;13.85;6.32;;;12.70;99.90;;;;;;4988221;28;20030;-77
2024/02/15 04:28:57;;;;;;;15.25;6.20;;;12.60;99.90;;;;;;4988655;28;20030;-78
2024/02/15 04:31:26;;;;;;;15.27;6.78;;;12.70;99.90;;;;;;4970867;28;20093;-76
2024/02/15 04:33:53;;;;;;;16.85;6.28;;;12.60;99.90;;;;;;4975430;28;20105;-78
2024/02/15 04:36:23;;;;;;;17.83;6.25;;;12.60;99.90;;;;;;4988195;28;20560;-78
2024/02/15 04:38:50;;;;;;;17.58;5.47;;;12.60;99.90;;;;;;4989197;28;20094;-78
2024/02/15 04:41:19;;;;;;;14.02;5.55;;;12.60;99.90;;;;;;4988284;28;20084;-79
2024/02/15 04:43:46;;;;;;;15.88;6.15;;;12.60;99.90;;;;;;4988048;28;20275;-79
2024/02/15 04:46:14;;;;;;;9.95;5.00;;;12.60;99.90;;;;;;4970456;28;20031;-78
2024/02/15 04:48:41;;;;;;;12.77;5.88;;;12.60;99.90;;;;;;4988502;28;20041;-78
2024/02/15 04:51:07;;;;;;;20.13;6.13;;;12.60;99.90;;;;;;4988324;28;20029;-79
2024/02/15 04:53:33;;;;;;;13.07;5.00;;;12.60;99.90;;;;;;4988446;28;20022;-78
2024/02/15 04:56:01;;;;;;;12.85;4.80;;;12.60;99.90;;;;;;4970070;28;20022;-78
2024/02/15 04:58:28;;;;;;;12.88;6.10;;;12.70;99.90;;;;;;4988790;28;20484;-79
2024/02/15 05:00:59;;;;;;;19.63;5.45;;;12.70;99.90;;;;;;4988312;28;20163;-79
2024/02/15 05:03:24;;;;;;;14.27;4.50;;;12.70;99.90;;;;;;4969883;28;20034;-77
2024/02/15 05:05:50;;;;;;;16.77;5.78;;;12.70;99.90;;;;;;4970179;28;20034;-77
2024/02/15 05:08:16;;;;;;;17.75;5.43;;;12.60;99.90;;;;;;4987985;28;20048;-77
2024/02/15 05:10:41;;;;;;;19.77;6.40;;;12.70;99.90;;;;;;4987017;28;20026;-78
2024/02/15 05:13:07;;;;;;;18.27;5.80;;;12.60;99.90;;;;;;4988248;28;20039;-78
2024/02/15 05:15:33;;;;;;;20.65;5.90;;;12.60;99.90;;;;;;4988443;28;20048;-78
2024/02/15 05:18:01;;;;;;;20.70;6.18;;;12.60;99.90;;;;;;4987315;28;20028;-78
2024/02/15 05:20:27;;;;;;;23.33;6.13;;;12.60;99.90;;;;;;4988013;28;20392;-78
2024/02/15 05:22:53;;;;;;;16.70;5.97;;;12.60;99.90;;;;;;4969587;28;20021;-79
2024/02/15 05:25:22;;;;;;;11.13;5.00;;;12.60;99.90;;;;;;4970209;28;20503;-78
2024/02/15 05:27:48;;;;;;;14.02;5.40;;;12.50;99.90;;;;;;4986779;28;20476;-79
2024/02/15 05:30:14;;;;;;;12.07;5.25;;;12.60;99.90;;;;;;4988001;28;20014;-79
2024/02/15 05:32:45;;;;;;;13.32;5.35;;;12.50;99.90;;;;;;4969419;28;20035;-79
2024/02/15 05:35:11;;;;;;;18.27;6.18;;;12.60;99.90;;;;;;4987705;28;20030;-79
2024/02/15 05:37:38;;;;;;;11.57;5.53;;;12.60;99.90;;;;;;4969463;28;20030;-79
2024/02/15 05:40:04;;;;;;;15.98;5.32;;;12.60;99.90;;;;;;4987621;28;20027;-80
2024/02/15 05:42:30;;;;;;;22.60;5.82;;;12.50;99.90;;;;;;4987079;28;20506;-79
2024/02/15 05:45:29;;;;;;;11.50;5.32;;;12.60;99.90;;;;;;4987445;28;20030;-79
2024/02/15 05:47:55;;;;;;;16.10;6.32;;;12.50;99.90;;;;;;4958939;28;20034;-79
2024/02/15 05:50:21;;;;;;;16.17;5.22;;;12.50;99.90;;;;;;4987597;28;20110;-79
2024/02/15 05:52:47;;;;;;;15.27;5.38;;;12.50;99.90;;;;;;4980707;28;20566;-79
2024/02/15 05:55:16;;;;;;;17.42;6.05;;;12.50;99.90;;;;;;4987490;28;20026;-79
2024/02/15 05:57:45;;;;;;;18.92;6.45;;;12.50;99.90;;;;;;4973602;28;20440;-78
2024/02/15 06:00:11;;;;;;;14.70;5.28;;;12.50;99.90;;;;;;4987514;28;20037;-78
2024/02/15 06:02:37;;;;;;;15.55;6.18;;;12.50;99.90;;;;;;4986518;28;20563;-78
2024/02/15 06:05:04;;;;;;;14.60;6.25;;;12.40;99.90;;;;;;4986754;28;20018;-78
2024/02/15 06:07:31;;;;;;;16.92;6.50;;;12.40;99.90;;;;;;4986977;28;20024;-79
2024/02/15 06:09:57;;;;;;;18.58;6.68;;;12.40;99.90;;;;;;4986988;28;20026;-79
2024/02/15 06:12:23;;;;;;;15.38;6.50;;;12.40;99.90;;;;;;4986581;28;20034;-78
2024/02/15 06:14:49;;;;;;;18.42;6.43;;;12.40;99.90;;;;;;4986524;28;20550;-77
2024/02/15 06:17:15;;;;;;;13.07;6.15;;;12.40;99.90;;;;;;4986308;28;20484;-78
2024/02/15 06:19:40;;;;;;;18.98;5.93;;;12.30;99.90;;;;;;4987060;28;20052;-78
2024/02/15 06:22:08;;;;;;;16.92;6.35;;;12.30;99.90;;;;;;4986385;28;20042;-78
2024/02/15 06:24:34;;;;;;;17.92;6.40;;;12.30;99.90;;;;;;4969575;28;20033;-77
2024/02/15 06:26:59;;;;;;;12.40;5.72;;;12.30;99.90;;;;;;4986577;28;20022;-77
2024/02/15 06:40:25;;;;;;;16.48;6.10;;;12.30;99.90;;;;;;4987174;28;20531;-78
2024/02/15 06:42:50;;;;;;;11.23;5.65;;;12.30;99.90;;;;;;4985566;28;20062;-78
2024/02/15 06:45:17;;;;;;;12.30;6.20;;;12.30;99.90;;;;;;4986577;28;20081;-78
2024/02/15 06:47:43;;;;;;;15.40;6.28;;;12.40;99.90;;;;;;4985991;28;20496;-78
2024/02/15 06:50:13;;;;;;;14.48;5.88;;;12.40;99.90;;;;;;4986697;28;20027;-78
2024/02/15 06:52:39;;;;;;;15.07;5.75;;;12.40;99.90;;;;;;4986099;28;20029;-78
2024/02/15 06:55:07;;;;;;;12.73;5.80;;;12.40;99.90;;;;;;4986404;28;20046;-79
2024/02/15 06:57:37;;;;;;;14.43;5.40;;;12.40;99.90;;;;;;4968394;28;20034;-77
2024/02/15 07:00:07;;;;;;;15.55;5.82;;;12.40;99.90;;;;;;4985572;28;20555;-77
2024/02/15 07:02:33;;;;;;;11.40;5.83;;;12.40;99.90;;;;;;4986765;28;20499;-77
2024/02/15 07:05:00;;;;;;;13.02;5.88;;;12.40;99.90;;;;;;4985993;28;20817;-77
2024/02/15 07:07:26;;;;;;;11.30;5.45;;;12.40;99.90;;;;;;4986186;28;20029;-78
2024/02/15 07:09:52;;;;;;;14.27;5.80;;;12.40;99.90;;;;;;4986761;28;20030;-78
2024/02/15 07:12:20;;;;;;;16.92;6.63;;;12.40;99.90;;;;;;4986134;28;20018;-77
2024/02/15 07:14:46;;;;;;;11.38;5.50;;;12.40;99.90;;;;;;4986486;28;20030;-77
2024/02/15 07:17:12;;;;;;;12.68;6.03;;;12.50;99.90;;;;;;4985917;28;20031;-77
2024/02/15 07:19:44;;;;;;;12.88;6.03;;;12.50;99.90;;;;;;4968675;28;20037;-77
2024/02/15 07:22:10;;;;;;;12.85;6.07;;;12.40;99.90;;;;;;4972770;28;20066;-76
2024/02/15 07:24:38;;;;;;;10.32;6.10;;;12.40;99.90;;;;;;4964926;28;20121;-78
2024/02/15 07:27:04;;;;;;;12.90;6.50;;;12.50;99.90;;;;;;4949111;28;20034;-77
2024/02/15 07:29:32;;;;;;;12.13;5.20;;;12.50;99.90;;;;;;4938705;29;20031;-77
2024/02/15 07:32:04;;;;;;;14.95;6.28;;;12.50;99.90;;;;;;4952070;28;20635;-78
2024/02/15 07:34:30;;;;;;;13.60;5.80;;;12.50;99.90;;;;;;4970044;28;20031;-78
2024/02/15 07:36:57;;;;;;;13.32;7.15;;;12.50;99.90;;;;;;4950486;28;20102;-78
2024/02/15 07:39:24;;;;;;;16.75;6.38;;;12.50;99.90;;;;;;4952800;28;20527;-78
2024/02/15 07:41:54;;;;;;;15.23;6.18;;;12.50;99.90;;;;;;4950930;28;20093;-77
2024/02/15 07:44:21;;;;;;;12.40;6.68;;;12.50;99.90;;;;;;4969446;28;20031;-78
2024/02/15 07:46:47;;;;;;;15.43;6.53;;;12.50;99.90;;;;;;4968742;28;20019;-77
2024/02/15 07:49:13;;;;;;;12.68;6.68;;;12.50;99.90;;;;;;4969596;28;20379;-77
2024/02/15 07:51:39;;;;;;;13.07;6.25;;;12.60;99.90;;;;;;4949863;28;20027;-81
2024/02/15 07:54:06;;;;;;;8.38;5.55;;;12.50;99.90;;;;;;4968562;28;20484;-77
2024/02/15 07:56:31;;;;;;;11.70;5.88;;;12.60;99.90;;;;;;4950437;28;20035;-77
2024/02/15 07:58:57;;;;;;;11.45;5.80;;;12.60;99.90;;;;;;4968422;28;20027;-77
2024/02/15 08:01:23;;;;;;;11.27;5.78;;;12.60;99.90;;;;;;4967943;28;20055;-76
2024/02/15 08:03:49;;;;;;;12.35;6.13;;;12.60;99.90;;;;;;4967832;28;20526;-77
2024/02/15 08:06:16;;;;;;;10.82;5.70;;;12.60;99.90;;;;;;4945934;29;20445;-76
2024/02/15 08:08:45;;;;;;;13.98;6.50;;;12.60;99.90;;;;;;4960981;28;20531;-76
2024/02/15 08:11:15;;;;;;;14.48;6.38;;;12.60;99.90;;;;;;4950419;28;20026;-77
2024/02/15 08:13:53;;;;;;;11.07;5.45;;;12.60;99.90;;;;;;4942879;28;20123;-77
2024/02/15 08:16:22;;;;;;;13.70;7.30;;;12.60;99.90;;;;;;4966479;28;20026;-77
2024/02/15 08:18:52;;;;;;;11.85;5.57;;;12.60;99.90;;;;;;4969435;28;20069;-78
2024/02/15 08:21:18;;;;;;;12.80;6.22;;;12.60;99.90;;;;;;4952870;28;20055;-77
2024/02/15 08:23:43;;;;;;;11.93;5.10;;;12.50;99.90;;;;;;4969060;28;20114;-78
2024/02/15 08:26:13;;;;;;;14.10;5.30;;;12.60;99.90;;;;;;4983225;28;20121;-76
2024/02/15 08:28:39;;;;;;;11.18;5.90;;;12.60;99.90;;;;;;4968984;28;20022;-77
2024/02/15 08:31:05;;;;;;;11.63;5.93;;;12.60;99.90;;;;;;4968056;28;20027;-77
2024/02/15 08:33:31;;;;;;;14.40;6.20;;;12.60;99.90;;;;;;4949505;28;20156;-77
2024/02/15 08:35:57;;;;;;;13.80;5.50;;;12.60;99.90;;;;;;4952713;28;20544;-77
2024/02/15 08:38:23;;;;;;;12.85;5.60;;;12.60;99.90;;;;;;4982853;28;20122;-78
2024/02/15 08:40:49;;;;;;;14.15;5.85;;;12.60;99.90;;;;;;4975133;28;20461;-77
2024/02/15 08:43:15;;;;;;;19.40;6.78;;;12.60;99.90;;;;;;4972331;28;20027;-78
2024/02/15 08:45:41;;;;;;;14.15;6.70;;;12.60;99.90;;;;;;4968673;28;20082;-77
2024/02/15 08:48:07;;;;;;;12.65;5.75;;;12.60;99.90;;;;;;4950884;28;20112;-77
2024/02/15 08:50:33;;;;;;;18.88;7.82;;;12.70;99.90;;;;;;4968861;28;20138;-77
2024/02/15 08:52:59;;;;;;;19.10;6.88;;;12.70;99.90;;;;;;4977765;28;20022;-77
2024/02/15 08:55:27;;;;;;;16.08;5.90;;;12.70;99.90;;;;;;4972456;28;20023;-78
2024/02/15 08:57:54;;;;;;;14.40;6.25;;;12.70;99.90;;;;;;4950154;28;20437;-78
2024/02/15 09:00:20;;;;;;;14.70;6.70;;;12.70;99.90;;;;;;4948549;28;20097;-79
2024/02/15 09:02:46;;;;;;;14.15;6.72;;;12.70;99.90;;;;;;4967888;28;20520;-79
2024/02/15 09:05:15;;;;;;;13.65;6.40;;;12.70;99.90;;;;;;4971848;28;20047;-80
2024/02/15 09:07:42;;;;;;;14.43;6.72;;;12.60;99.90;;;;;;4972537;28;20125;-79
2024/02/15 09:10:12;;;;;;;15.10;7.63;;;12.60;99.90;;;;;;4960043;28;20090;-79
2024/02/15 09:12:39;;;;;;;12.27;5.95;;;12.60;99.90;;;;;;4953712;28;20074;-80
2024/02/15 09:15:07;;;;;;;19.10;8.20;;;12.60;99.90;;;;;;4960955;28;20551;-78
2024/02/15 09:17:38;;;;;;;13.30;7.03;;;12.60;99.90;;;;;;4952232;28;20475;-79
2024/02/15 09:20:06;;;;;;;14.20;6.45;;;12.60;99.90;;;;;;4973235;28;20033;-79
2024/02/15 09:22:32;;;;;;;12.85;6.28;;;12.60;99.90;;;;;;4967960;28;20059;-78
2024/02/15 09:24:58;;;;;;;14.50;6.45;;;12.60;99.90;;;;;;4968475;28;20027;-78
2024/02/15 09:27:24;;;;;;;15.65;6.95;;;12.60;99.90;;;;;;4965929;28;20029;-77
2024/02/15 09:29:49;;;;;;;14.93;5.88;;;12.60;99.90;;;;;;4942182;28;20409;-77
2024/02/15 09:32:15;;;;;;;12.90;6.18;;;12.60;99.90;;;;;;4967857;28;20023;-78
2024/02/15 09:34:41;;;;;;;16.90;5.47;;;12.60;99.90;;;;;;4968055;28;20031;-78
2024/02/15 09:37:07;;;;;;;10.35;5.05;;;12.50;99.90;;;;;;4966966;28;20034;-78
2024/02/15 09:39:35;;;;;;;13.52;5.38;;;12.50;99.90;;;;;;4968125;28;20030;-79
2024/02/15 09:42:00;;;;;;;11.80;4.90;;;12.50;99.90;;;;;;4950117;28;20034;-80
2024/02/15 09:44:29;;;;;;;13.63;4.88;;;12.50;99.90;;;;;;4967526;28;20019;-79
2024/02/15 09:47:05;;;;;;;9.93;4.28;;;12.40;99.90;;;;;;4966859;28;20019;-78
2024/02/15 09:49:39;;;;;;;16.45;5.20;;;12.40;99.90;;;;;;4967441;28;20061;-79
2024/02/15 09:52:11;;;;;;;15.18;5.22;;;12.40;99.90;;;;;;4949635;28;20767;-78
2024/02/15 09:54:39;;;;;;;16.15;5.85;;;12.40;99.90;;;;;;4976608;28;20030;-79
2024/02/15 09:57:05;;;;;;;17.15;5.68;;;12.40;99.90;;;;;;4962154;28;20019;-79
2024/02/15 09:59:31;;;;;;;12.98;6.28;;;12.40;99.90;;;;;;4967400;28;20551;-78
2024/02/15 10:01:59;;;;;;;21.15;7.80;;;12.40;99.90;;;;;;4966358;28;20026;-78
2024/02/15 10:04:25;;;;;;;13.75;6.50;;;12.50;99.90;;;;;;4967176;28;20693;-79
2024/02/15 10:06:51;;;;;;;16.58;6.40;;;12.50;99.90;;;;;;4941714;28;20114;-79
2024/02/15 10:09:30;;;;;;;15.88;6.60;;;12.50;99.90;;;;;;4967411;28;20126;-79
2024/02/15 10:11:58;;;;;;;15.52;5.68;;;12.40;99.90;;;;;;4966902;28;20472;-77
2024/02/15 10:14:25;;;;;;;13.20;6.32;;;12.50;99.90;;;;;;4948802;28;20429;-79
2024/02/15 10:16:53;;;;;;;14.40;6.97;;;12.50;99.90;;;;;;4962402;28;20042;-79
2024/02/15 10:19:24;;;;;;;15.35;6.07;;;12.50;99.90;;;;;;4967284;28;20530;-79
2024/02/15 10:21:57;;;;;;;16.67;6.13;;;12.50;99.90;;;;;;4976194;28;20081;-80
2024/02/15 10:24:27;;;;;;;18.73;7.18;;;12.50;99.90;;;;;;4986414;28;20034;-80
2024/02/15 10:27:04;;;;;;;12.65;6.28;;;12.50;99.90;;;;;;4985467;28;20038;-80
2024/02/15 10:29:30;;;;;;;14.18;5.53;;;12.50;99.90;;;;;;4986672;28;20034;-80
2024/02/15 10:32:00;;;;;;;15.10;5.65;;;12.50;99.90;;;;;;4986023;28;20015;-80
2024/02/15 10:34:30;;;;;;;16.00;6.05;;;12.50;99.90;;;;;;4986890;28;20061;-79
2024/02/15 10:37:11;;;;;;;13.30;5.30;;;12.50;99.90;;;;;;4985204;28;20050;-78
2024/02/15 10:39:37;;;;;;;12.98;5.68;;;12.50;99.90;;;;;;4978473;28;20026;-78
2024/02/15 10:42:05;;;;;;;14.45;5.50;;;12.50;99.90;;;;;;4985334;28;20026;-79
2024/02/15 10:44:34;;;;;;;15.13;5.82;;;12.50;99.90;;;;;;4969212;28;20118;-79
2024/02/15 10:47:06;;;;;;;15.77;6.22;;;12.50;99.90;;;;;;4985595;28;20226;-80
2024/02/15 10:49:31;;;;;;;19.45;5.68;;;12.60;99.90;;;;;;4986671;28;20097;-79
2024/02/15 10:51:58;;;;;;;16.90;6.90;;;12.60;99.90;;;;;;4986167;28;20650;-79
2024/02/15 10:54:46;;;;;;;13.10;5.78;;;12.60;99.90;;;;;;4987015;28;20033;-78
2024/02/15 10:57:14;;;;;;;12.27;5.47;;;12.60;99.90;;;;;;4985762;28;20034;-79
2024/02/15 11:00:20;;;;;;;17.10;5.82;;;12.60;99.90;;;;;;4986449;28;20076;-81
2024/02/15 11:03:10;;;;;;;16.38;5.53;;;12.60;99.90;;;;;;4976481;28;20165;-78
2024/02/15 11:05:40;;;;;;;20.25;5.57;;;12.60;99.90;;;;;;4990797;28;20018;-78
2024/02/15 11:08:08;;;;;;;14.43;5.75;;;12.70;99.90;;;;;;4986617;28;20512;-78
2024/02/15 11:10:43;;;;;;;15.90;5.25;;;12.70;99.90;;;;;;4979364;28;20511;-78
2024/02/15 11:13:09;;;;;;;15.70;5.20;;;12.70;99.90;;;;;;4989813;28;20084;-78
2024/02/15 11:15:45;;;;;;;12.27;4.80;;;12.70;99.90;;;;;;4990209;28;20095;-78
2024/02/15 11:18:11;;;;;;;12.48;4.53;;;12.70;99.90;;;;;;4977519;28;20041;-78
2024/02/15 11:20:38;;;;;;;11.63;4.95;;;12.70;99.90;;;;;;4988455;28;20053;-78
2024/02/15 11:23:04;;;;;;;12.40;5.55;;;12.80;99.90;;;;;;4987847;28;20123;-78
2024/02/15 11:25:39;;;;;;;13.75;5.25;;;12.80;99.90;;;;;;4980935;28;20030;-78
2024/02/15 11:28:31;;;;;;;9.63;4.63;;;12.80;99.90;;;;;;4991062;28;20026;-78
2024/02/15 11:30:57;;;;;;;9.55;4.63;;;12.90;99.90;;;;;;4988719;28;20109;-79
2024/02/15 11:33:30;;;;;;;12.15;5.20;;;12.90;99.90;;;;;;4988148;28;20274;-78
2024/02/15 11:36:12;;;;;;;10.80;4.55;;;12.90;99.90;;;;;;4983559;28;20019;-78
2024/02/15 11:38:41;;;;;;;16.23;5.43;;;12.90;99.90;;;;;;4989251;28;20509;-79
2024/02/15 11:41:09;;;;;;;11.00;4.55;;;13.00;99.90;;;;;;4989839;28;20492;-78
2024/02/15 11:43:45;;;;;;;12.98;4.88;;;13.00;99.90;;;;;;4989465;28;20034;-77
2024/02/15 11:46:15;;;;;;;9.38;4.05;;;13.00;99.90;;;;;;4971876;28;20033;-78
2024/02/15 11:48:40;;;;;;;10.52;4.47;;;13.00;99.90;;;;;;4988977;28;20547;-78
2024/02/15 11:51:11;;;;;;;9.32;5.28;;;13.00;99.90;;;;;;4988154;28;20146;-78
2024/02/15 11:53:37;;;;;;;16.02;4.82;;;13.10;99.90;;;;;;4964234;28;20069;-77
2024/02/15 11:56:09;;;;;;;14.05;4.68;;;13.20;99.90;;;;;;4989279;28;20097;-77
2024/02/15 11:58:52;;;;;;;9.60;4.85;;;13.20;99.90;;;;;;4989659;28;20080;-78
2024/02/15 12:20:34;;;;;;;10.77;3.90;;;13.50;99.90;;;;;;4988906;28;20384;-77
2024/02/15 12:23:02;;;;;;;8.95;3.70;;;13.60;99.90;;;;;;4989612;28;20054;-77
2024/02/15 12:25:28;;;;;;;9.75;3.55;;;13.60;99.90;;;;;;4971122;28;20030;-77
2024/02/15 12:28:00;;;;;;;9.18;3.83;;;13.60;99.90;;;;;;4988539;28;20022;-77
2024/02/15 12:30:32;;;;;;;10.77;3.83;;;13.70;99.90;;;;;;4971412;28;20496;-77
2024/02/15 12:33:10;;;;;;;10.93;4.10;;;13.70;99.90;;;;;;4970800;28;20030;-77
2024/02/15 12:35:37;;;;;;;9.82;3.33;;;13.80;99.90;;;;;;4975405;28;20038;-77
2024/02/15 12:38:05;;;;;;;6.90;3.30;;;13.80;99.90;;;;;;4967561;28;20081;-78
2024/02/15 12:40:34;;;;;;;8.15;3.95;;;13.80;99.90;;;;;;4988504;28;20062;-77
2024/02/15 12:43:01;;;;;;;9.60;3.75;;;13.90;99.90;;;;;;4987641;28;20505;-78
2024/02/15 12:45:30;;;;;;;7.65;3.17;;;13.90;99.90;;;;;;4988205;28;20062;-79
2024/02/15 12:47:57;;;;;;;6.82;3.40;;;13.90;99.90;;;;;;4969968;28;20065;-78
2024/02/15 12:50:27;;;;;;;8.52;3.15;;;13.90;99.90;;;;;;4988322;28;20014;-78
2024/02/15 12:52:55;;;;;;;11.80;3.28;;;14.00;99.90;;;;;;4987759;28;20023;-78
2024/02/15 12:55:24;;;;;;;5.15;2.80;;;14.00;99.90;;;;;;4987817;28;20026;-77
2024/02/15 12:57:55;;;;;;;6.47;2.58;;;14.00;99.90;;;;;;4987810;28;20052;-78
2024/02/15 13:00:31;;;;;;;7.35;3.20;;;14.00;99.90;;;;;;4988278;28;20113;-78
2024/02/15 13:02:58;;;;;;;8.50;2.97;;;14.00;99.90;;;;;;4975683;28;20026;-77
2024/02/15 13:05:26;;;;;;;7.05;2.90;;;14.00;99.90;;;;;;4987532;28;20663;-78
2024/02/15 13:07:54;;;;;;;5.97;2.55;;;14.10;99.90;;;;;;4976023;28;20304;-77
2024/02/15 13:10:21;;;;;;;8.65;3.22;;;14.10;99.90;;;;;;4993201;28;20025;-79